Pskov, Russia
Current Conditions -  °F | °C
As of 2:30 AM on Sunday 26 Oct 2014 (Local Time) from ULOO Reporting Station
Clear Clear  
Wind Chill: 19°   Ceiling: Unl
Heat Index: 27°   Visibility: 4mi
Dew Point: 18°   Wind: 7mph
Humidity: 69%   Direction: 170°S
Pressure: 30.36"   Gusts: NA
Location:  57.83°N, 28.33°E
Report Text: ULOO 252330Z 17003MPS P6000 NSC M03/M08 Q1028 19090070 NOSIGRMK QFE767
Loading
Personal Weather Stations






























Interactive Weather Map
Tropical Storm Tracking
New forecast layout! Learn more

10-Day Weather Forecast

Advertisements
Track Severe Weather on mobile